0R4

Concordia Parish Airport

Vidalia, Louisiana, USA
METAR K0R4 230915Z AUTO 28006KT 10SM OVC032 12/10 A2994 RMK AO2 T01160103
Observed Flight Rules
Apr-23 @ 09:15 UTC (23 minutes ago) Visual Flight Rules
Wind Visibility Clouds
280° at 6 knots 10 miles
  • Overcast at 3,200' AGL
Temperatures Readings
Current 12°C / 54°F
Dewpoint 10°C / 50°F
Humidity 88%
Altimeter 29.94" Hg
Pressure 1014 hPa
Elevation 17
METAR K0R4 230915Z AUTO 28006KT 10SM OVC032 12/10 A2994 RMK AO2 T01160103
Observed Flight Rules
Apr-23 @ 09:15 UTC
(23 minutes ago)
VFR
Wind Visibility
280° at 6 knots 10 miles
Clouds
  • Overcast at 3,200' AGL
Temperature Dewpoint
12°C / 54°F 10°C / 50°F
Humidity Altimeter Pressure
88% 29.94" Hg 1014 hPa